sensor_id;sensor_type;location;lat;lon;timestamp;pressure;altitude;pressure_sealevel;temperature;humidity
60087;BME280;45960;53.630;55.972;2023-11-21T00:00:47;99684.38;;;3.12;64.78
60087;BME280;45960;53.630;55.972;2023-11-21T00:02:07;99683.53;;;3.12;65.04
60087;BME280;45960;53.630;55.972;2023-11-21T00:03:26;99676.31;;;3.16;65.32
60087;BME280;45960;53.630;55.972;2023-11-21T00:04:48;99680.63;;;3.18;65.30
60087;BME280;45960;53.630;55.972;2023-11-21T00:06:08;99673.34;;;3.23;65.42
60087;BME280;45960;53.630;55.972;2023-11-21T00:07:28;99661.09;;;3.22;65.71
60087;BME280;45960;53.630;55.972;2023-11-21T00:08:47;99672.94;;;3.32;65.72
60087;BME280;45960;53.630;55.972;2023-11-21T00:10:07;99657.69;;;3.39;65.77
60087;BME280;45960;53.630;55.972;2023-11-21T00:11:27;99662.69;;;3.45;65.97
60087;BME280;45960;53.630;55.972;2023-11-21T00:12:46;99662.38;;;3.51;66.04
60087;BME280;45960;53.630;55.972;2023-11-21T00:14:07;99659.41;;;3.59;65.97
60087;BME280;45960;53.630;55.972;2023-11-21T00:15:27;99657.53;;;3.61;65.53
60087;BME280;45960;53.630;55.972;2023-11-21T00:16:47;99667.97;;;3.64;65.61
60087;BME280;45960;53.630;55.972;2023-11-21T00:18:06;99661.09;;;3.60;65.45
60087;BME280;45960;53.630;55.972;2023-11-21T00:19:26;99648.97;;;3.56;65.42
60087;BME280;45960;53.630;55.972;2023-11-21T00:20:45;99640.31;;;3.52;65.73
60087;BME280;45960;53.630;55.972;2023-11-21T00:22:05;99635.53;;;3.42;65.89
60087;BME280;45960;53.630;55.972;2023-11-21T00:23:25;99632.69;;;3.46;66.18
60087;BME280;45960;53.630;55.972;2023-11-21T00:24:45;99634.28;;;3.50;66.28
60087;BME280;45960;53.630;55.972;2023-11-21T00:26:05;99585.44;;;3.21;66.39
60087;BME280;45960;53.630;55.972;2023-11-21T00:27:24;99627.25;;;3.49;66.21
60087;BME280;45960;53.630;55.972;2023-11-21T00:28:44;99623.78;;;3.49;66.30
60087;BME280;45960;53.630;55.972;2023-11-21T00:30:05;99624.72;;;3.48;66.23
60087;BME280;45960;53.630;55.972;2023-11-21T00:31:27;99615.84;;;3.49;66.25
60087;BME280;45960;53.630;55.972;2023-11-21T00:32:46;99617.56;;;3.50;66.09
60087;BME280;45960;53.630;55.972;2023-11-21T00:34:05;99621.13;;;3.49;65.33
60087;BME280;45960;53.630;55.972;2023-11-21T00:35:24;99619.56;;;3.45;64.50
60087;BME280;45960;53.630;55.972;2023-11-21T00:36:45;99619.56;;;3.45;64.75
60087;BME280;45960;53.630;55.972;2023-11-21T00:38:04;99628.25;;;3.47;65.15
60087;BME280;45960;53.630;55.972;2023-11-21T00:39:26;99628.91;;;3.52;65.00
60087;BME280;45960;53.630;55.972;2023-11-21T00:40:45;99605.88;;;3.36;63.70
60087;BME280;45960;53.630;55.972;2023-11-21T00:42:05;99619.44;;;3.48;63.90
60087;BME280;45960;53.630;55.972;2023-11-21T00:43:25;99626.25;;;3.52;64.10
60087;BME280;45960;53.630;55.972;2023-11-21T00:44:44;99622.56;;;3.56;63.71
60087;BME280;45960;53.630;55.972;2023-11-21T00:46:05;99633.91;;;3.58;64.21
60087;BME280;45960;53.630;55.972;2023-11-21T00:47:27;99639.13;;;3.59;64.26
60087;BME280;45960;53.630;55.972;2023-11-21T00:48:46;99637.97;;;3.65;64.21
60087;BME280;45960;53.630;55.972;2023-11-21T00:50:06;99631.69;;;3.68;64.69
60087;BME280;45960;53.630;55.972;2023-11-21T00:51:26;99615.41;;;3.58;64.87
60087;BME280;45960;53.630;55.972;2023-11-21T00:52:46;99634.09;;;3.72;65.19
60087;BME280;45960;53.630;55.972;2023-11-21T00:54:06;99630.53;;;3.73;64.56
60087;BME280;45960;53.630;55.972;2023-11-21T00:55:26;99620.19;;;3.69;64.34
60087;BME280;45960;53.630;55.972;2023-11-21T00:56:47;99618.41;;;3.69;64.35
60087;BME280;45960;53.630;55.972;2023-11-21T00:58:07;99590.22;;;3.51;64.60
60087;BME280;45960;53.630;55.972;2023-11-21T00:59:26;99611.72;;;3.62;64.85
60087;BME280;45960;53.630;55.972;2023-11-21T01:00:46;99610.28;;;3.55;65.14
60087;BME280;45960;53.630;55.972;2023-11-21T01:02:07;99608.88;;;3.48;65.39
60087;BME280;45960;53.630;55.972;2023-11-21T01:03:29;99604.59;;;3.45;66.08
60087;BME280;45960;53.630;55.972;2023-11-21T01:04:50;99602.78;;;3.46;66.55
60087;BME280;45960;53.630;55.972;2023-11-21T01:06:09;99598.31;;;3.48;67.11
60087;BME280;45960;53.630;55.972;2023-11-21T01:07:29;99608.88;;;3.48;67.45
60087;BME280;45960;53.630;55.972;2023-11-21T01:08:48;99605.28;;;3.49;67.89
60087;BME280;45960;53.630;55.972;2023-11-21T01:10:08;99608.56;;;3.54;68.33
60087;BME280;45960;53.630;55.972;2023-11-21T01:11:28;99605.72;;;3.58;68.45
60087;BME280;45960;53.630;55.972;2023-11-21T01:12:48;99605.72;;;3.58;68.09
60087;BME280;45960;53.630;55.972;2023-11-21T01:14:08;99594.13;;;3.61;68.42
60087;BME280;45960;53.630;55.972;2023-11-21T01:15:29;99588.56;;;3.67;68.97
60087;BME280;45960;53.630;55.972;2023-11-21T01:16:49;99580.34;;;3.73;69.29
60087;BME280;45960;53.630;55.972;2023-11-21T01:18:08;99576.56;;;3.79;69.45
60087;BME280;45960;53.630;55.972;2023-11-21T01:19:28;99562.19;;;3.85;69.68
60087;BME280;45960;53.630;55.972;2023-11-21T01:20:48;99565.38;;;3.91;69.84
60087;BME280;45960;53.630;55.972;2023-11-21T01:22:07;99579.28;;;3.95;70.01
60087;BME280;45960;53.630;55.972;2023-11-21T01:23:27;99570.19;;;4.00;70.05
60087;BME280;45960;53.630;55.972;2023-11-21T01:24:47;99579.75;;;4.03;70.20
60087;BME280;45960;53.630;55.972;2023-11-21T01:26:06;99584.91;;;4.06;70.12
60087;BME280;45960;53.630;55.972;2023-11-21T01:27:30;99579.59;;;4.06;70.15
60087;BME280;45960;53.630;55.972;2023-11-21T01:28:49;99574.47;;;4.03;70.41
60087;BME280;45960;53.630;55.972;2023-11-21T01:30:09;99536.63;;;3.85;70.82
60087;BME280;45960;53.630;55.972;2023-11-21T01:31:29;99566.38;;;4.06;70.78
60087;BME280;45960;53.630;55.972;2023-11-21T01:32:49;99559.19;;;4.10;70.97
60087;BME280;45960;53.630;55.972;2023-11-21T01:34:09;99533.59;;;4.10;70.77
60087;BME280;45960;53.630;55.972;2023-11-21T01:35:29;99538.56;;;4.16;70.85
60087;BME280;45960;53.630;55.972;2023-11-21T01:36:48;99529.72;;;4.17;70.82
60087;BME280;45960;53.630;55.972;2023-11-21T01:38:08;99523.41;;;4.20;70.90
60087;BME280;45960;53.630;55.972;2023-11-21T01:39:28;99522.88;;;4.13;70.92
60087;BME280;45960;53.630;55.972;2023-11-21T01:40:48;99511.28;;;4.16;71.12
60087;BME280;45960;53.630;55.972;2023-11-21T01:42:08;99515.72;;;4.15;71.04
60087;BME280;45960;53.630;55.972;2023-11-21T01:43:29;99513.31;;;4.11;70.74
60087;BME280;45960;53.630;55.972;2023-11-21T01:44:50;99523.09;;;4.09;70.85
60087;BME280;45960;53.630;55.972;2023-11-21T01:46:09;99523.88;;;4.11;71.05
60087;BME280;45960;53.630;55.972;2023-11-21T01:47:29;99512.28;;;4.13;71.13
60087;BME280;45960;53.630;55.972;2023-11-21T01:48:49;99506.84;;;4.16;71.36
60087;BME280;45960;53.630;55.972;2023-11-21T01:50:13;99510.97;;;4.22;71.26
60087;BME280;45960;53.630;55.972;2023-11-21T01:51:33;99516.94;;;4.25;71.21
60087;BME280;45960;53.630;55.972;2023-11-21T01:52:55;99506.22;;;4.29;71.27
60087;BME280;45960;53.630;55.972;2023-11-21T01:54:17;99518.34;;;4.33;71.35
60087;BME280;45960;53.630;55.972;2023-11-21T01:55:37;99518.28;;;4.34;71.35
60087;BME280;45960;53.630;55.972;2023-11-21T01:56:59;99504.91;;;4.37;71.33
60087;BME280;45960;53.630;55.972;2023-11-21T01:58:22;99503.94;;;4.38;71.49
60087;BME280;45960;53.630;55.972;2023-11-21T01:59:42;99496.88;;;4.39;71.46
60087;BME280;45960;53.630;55.972;2023-11-21T02:01:03;99495.00;;;4.41;71.57
60087;BME280;45960;53.630;55.972;2023-11-21T02:02:22;99499.34;;;4.42;71.69
60087;BME280;45960;53.630;55.972;2023-11-21T02:03:41;99499.28;;;4.43;71.69
60087;BME280;45960;53.630;55.972;2023-11-21T02:05:01;99483.56;;;4.40;71.78
60087;BME280;45960;53.630;55.972;2023-11-21T02:06:23;99492.97;;;4.46;71.73
60087;BME280;45960;53.630;55.972;2023-11-21T02:07:46;99487.69;;;4.46;71.65
60087;BME280;45960;53.630;55.972;2023-11-21T02:09:08;99471.81;;;4.46;71.61
60087;BME280;45960;53.630;55.972;2023-11-21T02:10:28;99477.97;;;4.46;71.62
60087;BME280;45960;53.630;55.972;2023-11-21T02:11:48;99469.91;;;4.48;71.60
60087;BME280;45960;53.630;55.972;2023-11-21T02:13:10;99470.97;;;4.45;71.54
60087;BME280;45960;53.630;55.972;2023-11-21T02:14:30;99477.09;;;4.46;71.44
60087;BME280;45960;53.630;55.972;2023-11-21T02:15:50;99464.78;;;4.45;71.49
60087;BME280;45960;53.630;55.972;2023-11-21T02:17:12;99461.25;;;4.46;71.57
60087;BME280;45960;53.630;55.972;2023-11-21T02:18:32;99468.22;;;4.47;71.56
60087;BME280;45960;53.630;55.972;2023-11-21T02:19:53;99460.47;;;4.44;71.67
60087;BME280;45960;53.630;55.972;2023-11-21T02:21:32;99457.66;;;4.47;71.75
60087;BME280;45960;53.630;55.972;2023-11-21T02:22:53;99469.16;;;4.46;71.85
60087;BME280;45960;53.630;55.972;2023-11-21T02:24:21;99467.59;;;4.42;72.01
60087;BME280;45960;53.630;55.972;2023-11-21T02:25:41;99465.81;;;4.42;72.12
60087;BME280;45960;53.630;55.972;2023-11-21T02:27:01;99461.56;;;4.40;72.09
60087;BME280;45960;53.630;55.972;2023-11-21T02:28:21;99467.94;;;4.36;72.59
60087;BME280;45960;53.630;55.972;2023-11-21T02:29:46;99466.31;;;4.33;72.71
60087;BME280;45960;53.630;55.972;2023-11-21T02:31:05;99463.59;;;4.35;72.92
60087;BME280;45960;53.630;55.972;2023-11-21T02:32:27;99463.44;;;4.38;73.09
60087;BME280;45960;53.630;55.972;2023-11-21T02:33:46;99454.38;;;4.42;73.05
60087;BME280;45960;53.630;55.972;2023-11-21T02:35:06;99454.22;;;4.45;73.04
60087;BME280;45960;53.630;55.972;2023-11-21T02:36:27;99451.50;;;4.46;73.09
60087;BME280;45960;53.630;55.972;2023-11-21T02:37:47;99450.50;;;4.49;73.15
60087;BME280;45960;53.630;55.972;2023-11-21T02:39:07;99446.91;;;4.50;73.09
60087;BME280;45960;53.630;55.972;2023-11-21T02:40:27;99415.66;;;4.41;72.92
60087;BME280;45960;53.630;55.972;2023-11-21T02:41:47;99441.44;;;4.53;73.07
60087;BME280;45960;53.630;55.972;2023-11-21T02:43:06;99437.09;;;4.52;73.15
60087;BME280;45960;53.630;55.972;2023-11-21T02:44:26;99421.72;;;4.43;73.37
60087;BME280;45960;53.630;55.972;2023-11-21T02:45:46;99422.19;;;4.51;73.48
60087;BME280;45960;53.630;55.972;2023-11-21T02:47:05;99425.91;;;4.47;73.59
60087;BME280;45960;53.630;55.972;2023-11-21T02:48:26;99424.88;;;4.49;73.62
60087;BME280;45960;53.630;55.972;2023-11-21T02:49:45;99426.53;;;4.52;73.64
60087;BME280;45960;53.630;55.972;2023-11-21T02:51:05;99426.41;;;4.54;73.65
60087;BME280;45960;53.630;55.972;2023-11-21T02:52:24;99429.00;;;4.55;73.62
60087;BME280;45960;53.630;55.972;2023-11-21T02:53:44;99416.72;;;4.54;73.86
60087;BME280;45960;53.630;55.972;2023-11-21T02:55:06;99411.25;;;4.57;73.88
60087;BME280;45960;53.630;55.972;2023-11-21T02:56:28;99411.09;;;4.60;73.89
60087;BME280;45960;53.630;55.972;2023-11-21T02:57:48;99408.44;;;4.60;73.94
60087;BME280;45960;53.630;55.972;2023-11-21T02:59:07;99410.13;;;4.61;73.96
60087;BME280;45960;53.630;55.972;2023-11-21T03:00:27;99410.06;;;4.63;73.85
60087;BME280;45960;53.630;55.972;2023-11-21T03:01:47;99416.03;;;4.66;73.91
60087;BME280;45960;53.630;55.972;2023-11-21T03:03:08;99410.75;;;4.66;73.88
60087;BME280;45960;53.630;55.972;2023-11-21T03:04:28;99395.03;;;4.63;73.85
60087;BME280;45960;53.630;55.972;2023-11-21T03:05:48;99396.91;;;4.61;74.03
60087;BME280;45960;53.630;55.972;2023-11-21T03:07:09;99361.06;;;4.40;73.84
60087;BME280;45960;53.630;55.972;2023-11-21T03:08:30;99391.97;;;4.55;73.98
60087;BME280;45960;53.630;55.972;2023-11-21T03:09:49;99381.53;;;4.52;74.07
60087;BME280;45960;53.630;55.972;2023-11-21T03:11:08;99385.38;;;4.46;74.25
60087;BME280;45960;53.630;55.972;2023-11-21T03:12:28;99385.44;;;4.45;74.19
60087;BME280;45960;53.630;55.972;2023-11-21T03:13:47;99385.63;;;4.42;74.13
60087;BME280;45960;53.630;55.972;2023-11-21T03:15:07;99386.91;;;4.35;74.25
60087;BME280;45960;53.630;55.972;2023-11-21T03:16:31;99380.06;;;4.31;74.38
60087;BME280;45960;53.630;55.972;2023-11-21T03:17:50;99384.44;;;4.32;74.52
60087;BME280;45960;53.630;55.972;2023-11-21T03:19:10;99371.44;;;4.27;74.70
60087;BME280;45960;53.630;55.972;2023-11-21T03:20:29;99378.13;;;4.34;74.75
60087;BME280;45960;53.630;55.972;2023-11-21T03:21:49;99378.81;;;4.38;74.62
60087;BME280;45960;53.630;55.972;2023-11-21T03:23:09;99375.22;;;4.39;74.67
60087;BME280;45960;53.630;55.972;2023-11-21T03:24:29;99371.66;;;4.40;74.53
60087;BME280;45960;53.630;55.972;2023-11-21T03:25:49;99345.69;;;4.31;74.21
60087;BME280;45960;53.630;55.972;2023-11-21T03:27:09;99359.34;;;4.39;74.17
60087;BME280;45960;53.630;55.972;2023-11-21T03:28:29;99359.50;;;4.36;74.00
60087;BME280;45960;53.630;55.972;2023-11-21T03:29:52;99353.63;;;4.31;74.02
60087;BME280;45960;53.630;55.972;2023-11-21T03:31:11;99351.31;;;4.24;74.27
60087;BME280;45960;53.630;55.972;2023-11-21T03:32:30;99342.59;;;4.22;74.35
60087;BME280;45960;53.630;55.972;2023-11-21T03:33:52;99337.97;;;4.10;74.59
60087;BME280;45960;53.630;55.972;2023-11-21T03:35:13;99350.78;;;4.18;74.49
60087;BME280;45960;53.630;55.972;2023-11-21T03:36:32;99358.63;;;4.19;74.64
60087;BME280;45960;53.630;55.972;2023-11-21T03:37:52;99353.28;;;4.21;74.59
60087;BME280;45960;53.630;55.972;2023-11-21T03:39:12;99342.75;;;4.19;73.47
60087;BME280;45960;53.630;55.972;2023-11-21T03:40:32;99343.38;;;4.24;73.88
60087;BME280;45960;53.630;55.972;2023-11-21T03:41:52;99340.50;;;4.29;74.17
60087;BME280;45960;53.630;55.972;2023-11-21T03:43:11;99340.06;;;4.37;74.21
60087;BME280;45960;53.630;55.972;2023-11-21T03:44:31;99341.59;;;4.41;74.08
60087;BME280;45960;53.630;55.972;2023-11-21T03:45:51;99341.59;;;4.41;73.64
60087;BME280;45960;53.630;55.972;2023-11-21T03:47:10;99336.16;;;4.44;73.92
60087;BME280;45960;53.630;55.972;2023-11-21T03:48:30;99337.59;;;4.49;73.80
60087;BME280;45960;53.630;55.972;2023-11-21T03:49:49;99335.81;;;4.50;73.44
60087;BME280;45960;53.630;55.972;2023-11-21T03:51:09;99339.06;;;4.55;73.53
60087;BME280;45960;53.630;55.972;2023-11-21T03:52:28;99342.31;;;4.60;73.53
60087;BME280;45960;53.630;55.972;2023-11-21T03:53:48;99331.91;;;4.57;73.41
60087;BME280;45960;53.630;55.972;2023-11-21T03:55:07;99333.06;;;4.67;73.33
60087;BME280;45960;53.630;55.972;2023-11-21T03:56:27;99332.91;;;4.70;73.22
60087;BME280;45960;53.630;55.972;2023-11-21T03:57:47;99338.03;;;4.74;73.04
60087;BME280;45960;53.630;55.972;2023-11-21T03:59:06;99339.72;;;4.75;72.49
60087;BME280;45960;53.630;55.972;2023-11-21T04:00:26;99330.66;;;4.79;72.28
60087;BME280;45960;53.630;55.972;2023-11-21T04:01:48;99333.25;;;4.80;70.73
60087;BME280;45960;53.630;55.972;2023-11-21T04:03:07;99331.38;;;4.82;70.96
60087;BME280;45960;53.630;55.972;2023-11-21T04:04:27;99326.91;;;4.83;70.12
60087;BME280;45960;53.630;55.972;2023-11-21T04:05:46;99336.47;;;4.85;70.40
60087;BME280;45960;53.630;55.972;2023-11-21T04:07:06;99330.34;;;4.85;69.97
60087;BME280;45960;53.630;55.972;2023-11-21T04:08:25;99314.78;;;4.79;69.61
60087;BME280;45960;53.630;55.972;2023-11-21T04:09:45;99333.41;;;4.93;68.71
60087;BME280;45960;53.630;55.972;2023-11-21T04:11:04;99328.84;;;4.95;68.57
60087;BME280;45960;53.630;55.972;2023-11-21T04:12:24;99327.75;;;4.99;68.57
60087;BME280;45960;53.630;55.972;2023-11-21T04:13:43;99274.00;;;4.67;68.79
60087;BME280;45960;53.630;55.972;2023-11-21T04:15:04;99327.56;;;5.02;68.57
60087;BME280;45960;53.630;55.972;2023-11-21T04:16:23;99331.00;;;5.04;67.86
60087;BME280;45960;53.630;55.972;2023-11-21T04:17:43;99325.53;;;5.07;66.98
60087;BME280;45960;53.630;55.972;2023-11-21T04:19:05;99315.66;;;5.09;67.68
60087;BME280;45960;53.630;55.972;2023-11-21T04:20:24;99272.38;;;4.80;67.94
60087;BME280;45960;53.630;55.972;2023-11-21T04:21:44;99317.28;;;5.12;67.54
60087;BME280;45960;53.630;55.972;2023-11-21T04:23:04;99324.97;;;5.16;67.43
60087;BME280;45960;53.630;55.972;2023-11-21T04:24:23;99277.06;;;4.91;67.52
60087;BME280;45960;53.630;55.972;2023-11-21T04:25:42;99307.72;;;5.09;66.87
60087;BME280;45960;53.630;55.972;2023-11-21T04:27:02;99327.00;;;5.27;67.73
60087;BME280;45960;53.630;55.972;2023-11-21T04:28:21;99317.06;;;5.31;68.32
60087;BME280;45960;53.630;55.972;2023-11-21T04:29:41;99309.72;;;5.36;68.54
60087;BME280;45960;53.630;55.972;2023-11-21T04:31:00;99318.44;;;5.38;68.89
60087;BME280;45960;53.630;55.972;2023-11-21T04:32:20;99323.72;;;5.38;67.75
60087;BME280;45960;53.630;55.972;2023-11-21T04:33:39;99311.41;;;5.37;68.04
60087;BME280;45960;53.630;55.972;2023-11-21T04:34:59;99311.34;;;5.38;68.12
60087;BME280;45960;53.630;55.972;2023-11-21T04:36:19;99311.34;;;5.38;67.99
60087;BME280;45960;53.630;55.972;2023-11-21T04:37:39;99310.19;;;5.43;68.07
60087;BME280;45960;53.630;55.972;2023-11-21T04:38:59;99309.34;;;5.42;68.35
60087;BME280;45960;53.630;55.972;2023-11-21T04:40:18;99307.66;;;5.41;67.52
60087;BME280;45960;53.630;55.972;2023-11-21T04:41:39;99311.81;;;5.45;67.81
60087;BME280;45960;53.630;55.972;2023-11-21T04:42:59;99302.94;;;5.46;67.78
60087;BME280;45960;53.630;55.972;2023-11-21T04:44:18;99283.22;;;5.36;67.42
60087;BME280;45960;53.630;55.972;2023-11-21T04:45:38;99310.69;;;5.49;66.82
60087;BME280;45960;53.630;55.972;2023-11-21T04:46:57;99298.19;;;5.51;67.00
60087;BME280;45960;53.630;55.972;2023-11-21T04:48:17;99293.44;;;5.42;66.36
60087;BME280;45960;53.630;55.972;2023-11-21T04:49:36;99293.91;;;5.49;66.17
60087;BME280;45960;53.630;55.972;2023-11-21T04:50:56;99296.31;;;5.53;66.75
60087;BME280;45960;53.630;55.972;2023-11-21T04:52:15;99268.50;;;5.46;67.19
60087;BME280;45960;53.630;55.972;2023-11-21T04:53:35;99290.44;;;5.63;67.58
60087;BME280;45960;53.630;55.972;2023-11-21T04:54:55;99279.84;;;5.63;67.07
60087;BME280;45960;53.630;55.972;2023-11-21T04:56:16;99287.25;;;5.57;65.28
60087;BME280;45960;53.630;55.972;2023-11-21T04:57:36;99281.75;;;5.60;66.01
60087;BME280;45960;53.630;55.972;2023-11-21T04:58:56;99277.97;;;5.65;66.02
60087;BME280;45960;53.630;55.972;2023-11-21T05:00:15;99281.19;;;5.70;66.90
60087;BME280;45960;53.630;55.972;2023-11-21T05:01:35;99276.94;;;5.67;65.79
60087;BME280;45960;53.630;55.972;2023-11-21T05:02:55;99276.84;;;5.69;63.74
60087;BME280;45960;53.630;55.972;2023-11-21T05:04:15;99277.78;;;5.68;63.81
60087;BME280;45960;53.630;55.972;2023-11-21T05:05:34;99261.09;;;5.66;63.66
60087;BME280;45960;53.630;55.972;2023-11-21T05:06:54;99278.34;;;5.73;63.51
60087;BME280;45960;53.630;55.972;2023-11-21T05:08:13;99276.66;;;5.72;64.29
60087;BME280;45960;53.630;55.972;2023-11-21T05:09:33;99263.75;;;5.66;63.12
60087;BME280;45960;53.630;55.972;2023-11-21T05:10:53;99275.50;;;5.76;63.70
60087;BME280;45960;53.630;55.972;2023-11-21T05:12:13;99270.00;;;5.79;62.55
60087;BME280;45960;53.630;55.972;2023-11-21T05:13:34;99280.44;;;5.82;63.76
60087;BME280;45960;53.630;55.972;2023-11-21T05:14:54;99279.38;;;5.84;64.06
60087;BME280;45960;53.630;55.972;2023-11-21T05:16:14;99284.81;;;5.83;64.16
60087;BME280;45960;53.630;55.972;2023-11-21T05:17:34;99278.53;;;5.84;65.04
60087;BME280;45960;53.630;55.972;2023-11-21T05:18:54;99282.88;;;5.85;64.36
60087;BME280;45960;53.630;55.972;2023-11-21T05:20:19;99280.91;;;5.89;64.30
60087;BME280;45960;53.630;55.972;2023-11-21T05:21:40;99272.00;;;5.90;65.11
60087;BME280;45960;53.630;55.972;2023-11-21T05:23:00;99280.28;;;5.99;65.25
60087;BME280;45960;53.630;55.972;2023-11-21T05:24:19;99274.03;;;6.00;64.13
60087;BME280;45960;53.630;55.972;2023-11-21T05:25:38;99280.09;;;6.02;63.52
60087;BME280;45960;53.630;55.972;2023-11-21T05:26:58;99279.97;;;6.04;63.62
60087;BME280;45960;53.630;55.972;2023-11-21T05:28:17;99280.81;;;6.04;63.79
60087;BME280;45960;53.630;55.972;2023-11-21T05:29:37;99274.28;;;6.10;62.99
60087;BME280;45960;53.630;55.972;2023-11-21T05:30:59;99280.16;;;6.15;62.46
60087;BME280;45960;53.630;55.972;2023-11-21T05:32:18;99277.81;;;6.11;60.96
60087;BME280;45960;53.630;55.972;2023-11-21T05:33:38;99273.03;;;6.16;62.19
60087;BME280;45960;53.630;55.972;2023-11-21T05:34:57;99265.66;;;6.21;61.51
60087;BME280;45960;53.630;55.972;2023-11-21T05:36:18;99266.63;;;6.20;61.91
60087;BME280;45960;53.630;55.972;2023-11-21T05:37:40;99267.38;;;6.22;61.44
60087;BME280;45960;53.630;55.972;2023-11-21T05:39:00;99265.25;;;6.27;61.88
60087;BME280;45960;53.630;55.972;2023-11-21T05:40:19;99256.19;;;6.31;61.76
60087;BME280;45960;53.630;55.972;2023-11-21T05:41:41;99255.97;;;6.34;61.86
60087;BME280;45960;53.630;55.972;2023-11-21T05:43:00;99248.78;;;6.36;62.86
60087;BME280;45960;53.630;55.972;2023-11-21T05:44:20;99245.72;;;6.42;61.29
60087;BME280;45960;53.630;55.972;2023-11-21T05:45:40;99243.28;;;6.39;61.21
60087;BME280;45960;53.630;55.972;2023-11-21T05:47:00;99247.53;;;6.42;61.26
60087;BME280;45960;53.630;55.972;2023-11-21T05:48:19;99236.59;;;6.46;61.65
60087;BME280;45960;53.630;55.972;2023-11-21T05:49:40;99239.81;;;6.52;60.60
60087;BME280;45960;53.630;55.972;2023-11-21T05:50:59;99233.38;;;6.56;61.78
60087;BME280;45960;53.630;55.972;2023-11-21T05:52:21;99235.69;;;6.60;60.52
60087;BME280;45960;53.630;55.972;2023-11-21T05:53:40;99224.25;;;6.60;60.82
60087;BME280;45960;53.630;55.972;2023-11-21T05:55:00;99227.66;;;6.62;61.49
60087;BME280;45960;53.630;55.972;2023-11-21T05:56:20;99228.28;;;6.65;60.54
60087;BME280;45960;53.630;55.972;2023-11-21T05:57:40;99225.63;;;6.65;60.84
60087;BME280;45960;53.630;55.972;2023-11-21T05:59:00;99234.03;;;6.72;61.01
60087;BME280;45960;53.630;55.972;2023-11-21T06:00:19;99231.09;;;6.77;60.67
60087;BME280;45960;53.630;55.972;2023-11-21T06:01:39;99231.53;;;6.83;61.67
60087;BME280;45960;53.630;55.972;2023-11-21T06:02:58;99225.81;;;6.89;61.49
60087;BME280;45960;53.630;55.972;2023-11-21T06:04:18;99220.31;;;6.92;62.21
60087;BME280;45960;53.630;55.972;2023-11-21T06:05:37;99220.19;;;6.94;61.30
60087;BME280;45960;53.630;55.972;2023-11-21T06:06:57;99218.94;;;7.00;60.04
60087;BME280;45960;53.630;55.972;2023-11-21T06:08:17;99224.03;;;7.03;59.48
60087;BME280;45960;53.630;55.972;2023-11-21T06:09:37;99213.22;;;7.06;58.75
60087;BME280;45960;53.630;55.972;2023-11-21T06:10:57;99216.59;;;7.08;57.71
60087;BME280;45960;53.630;55.972;2023-11-21T06:12:16;99211.19;;;7.09;57.93
60087;BME280;45960;53.630;55.972;2023-11-21T06:13:36;99211.84;;;7.13;58.05
60087;BME280;45960;53.630;55.972;2023-11-21T06:14:55;99205.78;;;7.11;58.96
60087;BME280;45960;53.630;55.972;2023-11-21T06:16:15;99202.06;;;7.13;57.78
60087;BME280;45960;53.630;55.972;2023-11-21T06:17:36;99209.09;;;7.14;58.88
60087;BME280;45960;53.630;55.972;2023-11-21T06:18:55;99195.69;;;7.16;59.10
60087;BME280;45960;53.630;55.972;2023-11-21T06:20:15;99195.59;;;7.17;58.50
60087;BME280;45960;53.630;55.972;2023-11-21T06:21:36;99189.22;;;7.20;56.53
60087;BME280;45960;53.630;55.972;2023-11-21T06:22:55;99188.25;;;7.21;57.91
60087;BME280;45960;53.630;55.972;2023-11-21T06:24:15;99191.44;;;7.26;59.05
60087;BME280;45960;53.630;55.972;2023-11-21T06:25:34;99190.06;;;7.33;60.33
60087;BME280;45960;53.630;55.972;2023-11-21T06:26:55;99203.56;;;7.43;58.93
60087;BME280;45960;53.630;55.972;2023-11-21T06:28:15;99199.00;;;7.45;59.43
60087;BME280;45960;53.630;55.972;2023-11-21T06:29:37;99196.97;;;7.49;59.31
60087;BME280;45960;53.630;55.972;2023-11-21T06:30:57;99193.13;;;7.53;59.98
60087;BME280;45960;53.630;55.972;2023-11-21T06:32:24;99182.94;;;7.59;60.51
60087;BME280;45960;53.630;55.972;2023-11-21T06:33:43;99183.56;;;7.63;60.03
60087;BME280;45960;53.630;55.972;2023-11-21T06:35:07;99189.50;;;7.67;60.42
60087;BME280;45960;53.630;55.972;2023-11-21T06:36:27;99176.97;;;7.69;60.53
60087;BME280;45960;53.630;55.972;2023-11-21T06:37:46;99177.59;;;7.72;60.90
60087;BME280;45960;53.630;55.972;2023-11-21T06:39:10;99173.78;;;7.76;61.11
60087;BME280;45960;53.630;55.972;2023-11-21T06:40:29;99178.88;;;7.79;61.02
60087;BME280;45960;53.630;55.972;2023-11-21T06:41:49;99175.97;;;7.82;60.59
60087;BME280;45960;53.630;55.972;2023-11-21T06:43:09;99175.00;;;7.83;59.36
60087;BME280;45960;53.630;55.972;2023-11-21T06:44:29;99168.00;;;7.82;59.37
60087;BME280;45960;53.630;55.972;2023-11-21T06:45:48;99165.34;;;7.82;59.86
60087;BME280;45960;53.630;55.972;2023-11-21T06:47:08;99169.69;;;7.83;59.06
60087;BME280;45960;53.630;55.972;2023-11-21T06:48:28;99164.16;;;7.87;59.16
60087;BME280;45960;53.630;55.972;2023-11-21T06:49:49;99156.91;;;7.89;58.99
60087;BME280;45960;53.630;55.972;2023-11-21T06:51:09;99170.22;;;7.89;57.91
60087;BME280;45960;53.630;55.972;2023-11-21T06:52:28;99155.94;;;7.90;57.80
60087;BME280;45960;53.630;55.972;2023-11-21T06:53:48;99156.81;;;7.90;58.72
60087;BME280;45960;53.630;55.972;2023-11-21T06:55:07;99159.59;;;7.89;58.48
60087;BME280;45960;53.630;55.972;2023-11-21T06:56:27;99144.38;;;7.91;59.51
60087;BME280;45960;53.630;55.972;2023-11-21T06:57:46;99111.66;;;7.77;60.12
60087;BME280;45960;53.630;55.972;2023-11-21T06:59:06;99131.81;;;7.93;59.72
60087;BME280;45960;53.630;55.972;2023-11-21T07:00:25;99118.53;;;7.93;59.82
60087;BME280;45960;53.630;55.972;2023-11-21T07:01:46;99144.72;;;8.10;59.67
60087;BME280;45960;53.630;55.972;2023-11-21T07:03:06;99142.78;;;8.12;59.61
60087;BME280;45960;53.630;55.972;2023-11-21T07:04:25;99144.97;;;8.07;57.79